sensor_id;sensor_type;location;lat;lon;timestamp;P1;durP1;ratioP1;P2;durP2;ratioP2
31694;SDS011;18289;51.330;4.946;2024-02-21T00:02:08;17.50;;;8.25;;
31694;SDS011;18289;51.330;4.946;2024-02-21T00:04:34;18.45;;;6.40;;
31694;SDS011;18289;51.330;4.946;2024-02-21T00:07:01;20.00;;;7.32;;
31694;SDS011;18289;51.330;4.946;2024-02-21T00:09:27;22.42;;;6.85;;
31694;SDS011;18289;51.330;4.946;2024-02-21T00:11:53;16.10;;;6.20;;
31694;SDS011;18289;51.330;4.946;2024-02-21T00:14:18;18.17;;;6.82;;
31694;SDS011;18289;51.330;4.946;2024-02-21T00:16:44;14.98;;;6.32;;
31694;SDS011;18289;51.330;4.946;2024-02-21T00:19:10;16.60;;;5.82;;
31694;SDS011;18289;51.330;4.946;2024-02-21T00:21:35;17.52;;;7.00;;
31694;SDS011;18289;51.330;4.946;2024-02-21T00:24:01;17.23;;;7.00;;
31694;SDS011;18289;51.330;4.946;2024-02-21T00:26:27;18.38;;;7.60;;
31694;SDS011;18289;51.330;4.946;2024-02-21T00:31:36;17.05;;;6.18;;
31694;SDS011;18289;51.330;4.946;2024-02-21T00:34:02;14.82;;;6.03;;
31694;SDS011;18289;51.330;4.946;2024-02-21T00:36:27;15.25;;;6.68;;
31694;SDS011;18289;51.330;4.946;2024-02-21T00:38:53;18.20;;;6.57;;
31694;SDS011;18289;51.330;4.946;2024-02-21T00:41:19;16.17;;;7.25;;
31694;SDS011;18289;51.330;4.946;2024-02-21T00:43:44;20.40;;;6.50;;
31694;SDS011;18289;51.330;4.946;2024-02-21T00:46:10;10.57;;;6.03;;
31694;SDS011;18289;51.330;4.946;2024-02-21T00:48:36;13.90;;;6.07;;
31694;SDS011;18289;51.330;4.946;2024-02-21T00:51:02;14.40;;;6.38;;
31694;SDS011;18289;51.330;4.946;2024-02-21T00:53:27;15.70;;;6.45;;
31694;SDS011;18289;51.330;4.946;2024-02-21T00:55:53;11.57;;;6.47;;
31694;SDS011;18289;51.330;4.946;2024-02-21T00:58:19;16.40;;;6.30;;
31694;SDS011;18289;51.330;4.946;2024-02-21T01:00:45;12.52;;;5.72;;
31694;SDS011;18289;51.330;4.946;2024-02-21T01:03:10;16.85;;;6.38;;
31694;SDS011;18289;51.330;4.946;2024-02-21T01:05:36;16.20;;;6.72;;
31694;SDS011;18289;51.330;4.946;2024-02-21T01:08:02;15.32;;;6.10;;
31694;SDS011;18289;51.330;4.946;2024-02-21T01:10:28;16.95;;;7.03;;
31694;SDS011;18289;51.330;4.946;2024-02-21T01:12:53;14.70;;;6.32;;
31694;SDS011;18289;51.330;4.946;2024-02-21T01:15:19;16.85;;;7.30;;
31694;SDS011;18289;51.330;4.946;2024-02-21T01:17:45;14.55;;;6.63;;
31694;SDS011;18289;51.330;4.946;2024-02-21T01:20:11;11.23;;;5.70;;
31694;SDS011;18289;51.330;4.946;2024-02-21T01:22:36;16.15;;;6.25;;
31694;SDS011;18289;51.330;4.946;2024-02-21T01:25:02;12.38;;;6.70;;
31694;SDS011;18289;51.330;4.946;2024-02-21T01:27:28;15.35;;;6.10;;
31694;SDS011;18289;51.330;4.946;2024-02-21T01:29:54;12.57;;;5.78;;
31694;SDS011;18289;51.330;4.946;2024-02-21T01:32:19;13.20;;;6.38;;
31694;SDS011;18289;51.330;4.946;2024-02-21T01:34:47;17.95;;;6.50;;
31694;SDS011;18289;51.330;4.946;2024-02-21T01:37:13;16.30;;;5.97;;
31694;SDS011;18289;51.330;4.946;2024-02-21T01:39:38;9.68;;;5.93;;
31694;SDS011;18289;51.330;4.946;2024-02-21T01:42:04;11.68;;;5.93;;
31694;SDS011;18289;51.330;4.946;2024-02-21T01:44:30;8.63;;;5.68;;
31694;SDS011;18289;51.330;4.946;2024-02-21T01:46:56;11.63;;;5.47;;
31694;SDS011;18289;51.330;4.946;2024-02-21T01:49:22;14.32;;;6.15;;
31694;SDS011;18289;51.330;4.946;2024-02-21T01:51:48;16.33;;;5.97;;
31694;SDS011;18289;51.330;4.946;2024-02-21T01:54:14;12.30;;;5.38;;
31694;SDS011;18289;51.330;4.946;2024-02-21T01:56:41;16.00;;;6.05;;
31694;SDS011;18289;51.330;4.946;2024-02-21T01:59:08;15.38;;;5.85;;
31694;SDS011;18289;51.330;4.946;2024-02-21T02:01:34;11.85;;;5.72;;
31694;SDS011;18289;51.330;4.946;2024-02-21T02:03:59;13.82;;;5.18;;
31694;SDS011;18289;51.330;4.946;2024-02-21T02:06:25;17.80;;;6.03;;
31694;SDS011;18289;51.330;4.946;2024-02-21T02:08:51;11.73;;;5.65;;
31694;SDS011;18289;51.330;4.946;2024-02-21T02:11:18;11.35;;;5.72;;
31694;SDS011;18289;51.330;4.946;2024-02-21T02:13:44;12.07;;;5.60;;
31694;SDS011;18289;51.330;4.946;2024-02-21T02:16:10;15.02;;;6.47;;
31694;SDS011;18289;51.330;4.946;2024-02-21T02:18:35;14.15;;;5.78;;
31694;SDS011;18289;51.330;4.946;2024-02-21T02:21:01;14.85;;;6.20;;
31694;SDS011;18289;51.330;4.946;2024-02-21T02:23:31;10.50;;;5.18;;
31694;SDS011;18289;51.330;4.946;2024-02-21T02:25:58;14.35;;;5.90;;
31694;SDS011;18289;51.330;4.946;2024-02-21T02:28:26;11.18;;;5.78;;
31694;SDS011;18289;51.330;4.946;2024-02-21T02:30:52;15.90;;;6.22;;
31694;SDS011;18289;51.330;4.946;2024-02-21T02:33:18;10.80;;;5.53;;
31694;SDS011;18289;51.330;4.946;2024-02-21T02:35:43;11.32;;;5.60;;
31694;SDS011;18289;51.330;4.946;2024-02-21T02:38:09;12.10;;;6.78;;
31694;SDS011;18289;51.330;4.946;2024-02-21T02:40:37;11.70;;;5.55;;
31694;SDS011;18289;51.330;4.946;2024-02-21T02:43:04;13.35;;;5.72;;
31694;SDS011;18289;51.330;4.946;2024-02-21T02:45:30;11.43;;;5.70;;
31694;SDS011;18289;51.330;4.946;2024-02-21T02:47:56;16.00;;;6.05;;
31694;SDS011;18289;51.330;4.946;2024-02-21T02:50:23;14.30;;;6.07;;
31694;SDS011;18289;51.330;4.946;2024-02-21T02:52:49;10.60;;;6.18;;
31694;SDS011;18289;51.330;4.946;2024-02-21T02:55:15;13.00;;;6.20;;
31694;SDS011;18289;51.330;4.946;2024-02-21T02:57:41;14.60;;;6.22;;
31694;SDS011;18289;51.330;4.946;2024-02-21T03:00:07;13.65;;;6.15;;
31694;SDS011;18289;51.330;4.946;2024-02-21T03:02:34;10.52;;;6.13;;
31694;SDS011;18289;51.330;4.946;2024-02-21T03:05:00;11.57;;;5.88;;
31694;SDS011;18289;51.330;4.946;2024-02-21T03:07:26;16.40;;;6.32;;
31694;SDS011;18289;51.330;4.946;2024-02-21T03:09:52;15.68;;;5.97;;
31694;SDS011;18289;51.330;4.946;2024-02-21T03:12:18;13.05;;;5.97;;
31694;SDS011;18289;51.330;4.946;2024-02-21T03:14:52;12.75;;;5.78;;
31694;SDS011;18289;51.330;4.946;2024-02-21T03:17:18;15.73;;;6.90;;
31694;SDS011;18289;51.330;4.946;2024-02-21T03:19:44;14.20;;;6.65;;
31694;SDS011;18289;51.330;4.946;2024-02-21T03:22:09;12.00;;;6.18;;
31694;SDS011;18289;51.330;4.946;2024-02-21T03:24:35;14.05;;;7.07;;
31694;SDS011;18289;51.330;4.946;2024-02-21T03:27:01;12.65;;;6.35;;
31694;SDS011;18289;51.330;4.946;2024-02-21T03:29:27;16.38;;;6.35;;
31694;SDS011;18289;51.330;4.946;2024-02-21T03:31:52;19.30;;;6.65;;
31694;SDS011;18289;51.330;4.946;2024-02-21T03:34:18;12.30;;;6.95;;
31694;SDS011;18289;51.330;4.946;2024-02-21T03:36:44;13.90;;;6.68;;
31694;SDS011;18289;51.330;4.946;2024-02-21T03:39:10;17.42;;;6.53;;
31694;SDS011;18289;51.330;4.946;2024-02-21T03:41:35;15.00;;;7.38;;
31694;SDS011;18289;51.330;4.946;2024-02-21T03:44:01;16.02;;;7.03;;
31694;SDS011;18289;51.330;4.946;2024-02-21T03:46:27;16.45;;;7.38;;
31694;SDS011;18289;51.330;4.946;2024-02-21T03:48:53;15.52;;;7.60;;
31694;SDS011;18289;51.330;4.946;2024-02-21T03:51:19;17.00;;;7.50;;
31694;SDS011;18289;51.330;4.946;2024-02-21T03:53:44;10.70;;;6.13;;
31694;SDS011;18289;51.330;4.946;2024-02-21T03:56:10;13.93;;;6.88;;
31694;SDS011;18289;51.330;4.946;2024-02-21T03:58:36;13.68;;;7.05;;
31694;SDS011;18289;51.330;4.946;2024-02-21T04:01:02;17.08;;;6.65;;
31694;SDS011;18289;51.330;4.946;2024-02-21T04:03:28;16.58;;;7.38;;
31694;SDS011;18289;51.330;4.946;2024-02-21T04:05:54;17.27;;;7.25;;
31694;SDS011;18289;51.330;4.946;2024-02-21T04:08:20;12.70;;;5.82;;
31694;SDS011;18289;51.330;4.946;2024-02-21T04:13:14;12.27;;;5.95;;
31694;SDS011;18289;51.330;4.946;2024-02-21T04:15:40;12.57;;;6.95;;
31694;SDS011;18289;51.330;4.946;2024-02-21T04:18:06;11.48;;;6.72;;
31694;SDS011;18289;51.330;4.946;2024-02-21T04:20:32;13.48;;;6.30;;
31694;SDS011;18289;51.330;4.946;2024-02-21T04:22:57;11.80;;;5.90;;
31694;SDS011;18289;51.330;4.946;2024-02-21T04:25:23;16.77;;;7.55;;
31694;SDS011;18289;51.330;4.946;2024-02-21T04:27:49;13.18;;;6.65;;
31694;SDS011;18289;51.330;4.946;2024-02-21T04:30:15;11.65;;;6.55;;
31694;SDS011;18289;51.330;4.946;2024-02-21T04:32:41;13.63;;;6.90;;
31694;SDS011;18289;51.330;4.946;2024-02-21T04:35:07;13.55;;;7.43;;
31694;SDS011;18289;51.330;4.946;2024-02-21T04:37:33;18.42;;;7.05;;
31694;SDS011;18289;51.330;4.946;2024-02-21T04:39:59;15.15;;;6.70;;
31694;SDS011;18289;51.330;4.946;2024-02-21T04:42:25;16.65;;;6.43;;
31694;SDS011;18289;51.330;4.946;2024-02-21T04:44:51;16.85;;;7.60;;
31694;SDS011;18289;51.330;4.946;2024-02-21T04:47:16;13.68;;;7.22;;
31694;SDS011;18289;51.330;4.946;2024-02-21T04:49:42;12.07;;;6.65;;
31694;SDS011;18289;51.330;4.946;2024-02-21T04:52:08;14.10;;;7.07;;
31694;SDS011;18289;51.330;4.946;2024-02-21T04:54:33;13.40;;;6.15;;
31694;SDS011;18289;51.330;4.946;2024-02-21T04:57:02;16.75;;;7.13;;
31694;SDS011;18289;51.330;4.946;2024-02-21T04:59:27;15.23;;;6.88;;
31694;SDS011;18289;51.330;4.946;2024-02-21T05:01:54;11.32;;;7.07;;
31694;SDS011;18289;51.330;4.946;2024-02-21T05:04:20;13.23;;;6.25;;
31694;SDS011;18289;51.330;4.946;2024-02-21T05:06:46;14.63;;;6.68;;
31694;SDS011;18289;51.330;4.946;2024-02-21T05:09:11;11.82;;;6.97;;
31694;SDS011;18289;51.330;4.946;2024-02-21T05:11:37;14.88;;;6.93;;
31694;SDS011;18289;51.330;4.946;2024-02-21T05:14:04;11.85;;;6.55;;
31694;SDS011;18289;51.330;4.946;2024-02-21T05:16:32;18.83;;;6.88;;
31694;SDS011;18289;51.330;4.946;2024-02-21T05:18:58;12.95;;;6.40;;
31694;SDS011;18289;51.330;4.946;2024-02-21T05:21:24;15.27;;;5.70;;
31694;SDS011;18289;51.330;4.946;2024-02-21T05:23:50;14.30;;;6.30;;
31694;SDS011;18289;51.330;4.946;2024-02-21T05:26:22;13.10;;;6.15;;
31694;SDS011;18289;51.330;4.946;2024-02-21T05:28:52;15.07;;;6.43;;
31694;SDS011;18289;51.330;4.946;2024-02-21T05:31:18;14.82;;;6.60;;
31694;SDS011;18289;51.330;4.946;2024-02-21T05:33:45;14.40;;;6.70;;
31694;SDS011;18289;51.330;4.946;2024-02-21T05:38:39;12.98;;;6.35;;
31694;SDS011;18289;51.330;4.946;2024-02-21T05:41:05;12.07;;;6.40;;
31694;SDS011;18289;51.330;4.946;2024-02-21T05:43:31;13.57;;;6.55;;
31694;SDS011;18289;51.330;4.946;2024-02-21T05:45:57;13.13;;;6.97;;
31694;SDS011;18289;51.330;4.946;2024-02-21T05:48:23;12.77;;;6.35;;
31694;SDS011;18289;51.330;4.946;2024-02-21T05:50:49;13.68;;;6.40;;
31694;SDS011;18289;51.330;4.946;2024-02-21T05:53:15;11.65;;;6.22;;
31694;SDS011;18289;51.330;4.946;2024-02-21T05:55:41;13.82;;;6.78;;
31694;SDS011;18289;51.330;4.946;2024-02-21T05:58:07;11.98;;;6.55;;
31694;SDS011;18289;51.330;4.946;2024-02-21T06:00:35;12.88;;;6.50;;
31694;SDS011;18289;51.330;4.946;2024-02-21T06:03:02;13.25;;;6.90;;
31694;SDS011;18289;51.330;4.946;2024-02-21T06:05:27;13.15;;;6.70;;
31694;SDS011;18289;51.330;4.946;2024-02-21T06:07:53;13.63;;;6.53;;
31694;SDS011;18289;51.330;4.946;2024-02-21T06:10:19;12.02;;;6.65;;
31694;SDS011;18289;51.330;4.946;2024-02-21T06:12:45;14.50;;;7.90;;
31694;SDS011;18289;51.330;4.946;2024-02-21T06:15:10;15.38;;;7.32;;
31694;SDS011;18289;51.330;4.946;2024-02-21T06:17:36;14.02;;;7.68;;
31694;SDS011;18289;51.330;4.946;2024-02-21T06:20:02;13.82;;;6.60;;
31694;SDS011;18289;51.330;4.946;2024-02-21T06:22:27;12.32;;;6.70;;
31694;SDS011;18289;51.330;4.946;2024-02-21T06:24:54;17.98;;;7.25;;
31694;SDS011;18289;51.330;4.946;2024-02-21T06:27:19;11.55;;;7.13;;
31694;SDS011;18289;51.330;4.946;2024-02-21T06:29:45;17.10;;;6.72;;
31694;SDS011;18289;51.330;4.946;2024-02-21T06:32:10;18.73;;;7.35;;
31694;SDS011;18289;51.330;4.946;2024-02-21T06:34:36;13.80;;;6.93;;
31694;SDS011;18289;51.330;4.946;2024-02-21T06:37:02;11.65;;;6.65;;
31694;SDS011;18289;51.330;4.946;2024-02-21T06:39:28;13.13;;;8.00;;
31694;SDS011;18289;51.330;4.946;2024-02-21T06:41:54;14.43;;;7.05;;
31694;SDS011;18289;51.330;4.946;2024-02-21T06:44:21;11.60;;;6.68;;
31694;SDS011;18289;51.330;4.946;2024-02-21T06:46:47;13.80;;;7.28;;
31694;SDS011;18289;51.330;4.946;2024-02-21T06:49:12;13.05;;;7.18;;
31694;SDS011;18289;51.330;4.946;2024-02-21T06:51:41;14.55;;;7.35;;
31694;SDS011;18289;51.330;4.946;2024-02-21T06:54:08;14.18;;;6.57;;
31694;SDS011;18289;51.330;4.946;2024-02-21T06:56:34;12.23;;;6.72;;
31694;SDS011;18289;51.330;4.946;2024-02-21T06:59:01;13.45;;;7.22;;
31694;SDS011;18289;51.330;4.946;2024-02-21T07:01:28;10.35;;;6.63;;
31694;SDS011;18289;51.330;4.946;2024-02-21T07:03:55;12.18;;;7.10;;
31694;SDS011;18289;51.330;4.946;2024-02-21T07:06:21;12.60;;;6.82;;
31694;SDS011;18289;51.330;4.946;2024-02-21T07:08:47;12.15;;;7.00;;
31694;SDS011;18289;51.330;4.946;2024-02-21T07:11:13;12.77;;;7.28;;
31694;SDS011;18289;51.330;4.946;2024-02-21T07:13:39;11.75;;;6.53;;
31694;SDS011;18289;51.330;4.946;2024-02-21T07:16:05;11.07;;;6.60;;
31694;SDS011;18289;51.330;4.946;2024-02-21T07:18:31;10.63;;;6.40;;
31694;SDS011;18289;51.330;4.946;2024-02-21T07:20:57;12.70;;;6.22;;
31694;SDS011;18289;51.330;4.946;2024-02-21T07:23:23;12.30;;;7.10;;
31694;SDS011;18289;51.330;4.946;2024-02-21T07:25:49;16.40;;;6.80;;
31694;SDS011;18289;51.330;4.946;2024-02-21T07:28:15;10.98;;;5.93;;
31694;SDS011;18289;51.330;4.946;2024-02-21T07:30:41;11.52;;;6.25;;
31694;SDS011;18289;51.330;4.946;2024-02-21T07:33:07;9.48;;;6.55;;
31694;SDS011;18289;51.330;4.946;2024-02-21T07:35:33;9.60;;;5.55;;
31694;SDS011;18289;51.330;4.946;2024-02-21T07:37:59;10.38;;;6.32;;
31694;SDS011;18289;51.330;4.946;2024-02-21T07:40:25;10.35;;;5.68;;
31694;SDS011;18289;51.330;4.946;2024-02-21T07:42:50;9.88;;;5.78;;
31694;SDS011;18289;51.330;4.946;2024-02-21T07:47:50;7.68;;;5.65;;
31694;SDS011;18289;51.330;4.946;2024-02-21T07:50:16;10.45;;;6.22;;
31694;SDS011;18289;51.330;4.946;2024-02-21T07:52:42;6.68;;;4.63;;
31694;SDS011;18289;51.330;4.946;2024-02-21T07:55:08;10.68;;;5.72;;
31694;SDS011;18289;51.330;4.946;2024-02-21T07:57:35;8.40;;;4.95;;
31694;SDS011;18289;51.330;4.946;2024-02-21T08:00:02;9.18;;;5.32;;
31694;SDS011;18289;51.330;4.946;2024-02-21T08:02:29;9.52;;;5.40;;
31694;SDS011;18289;51.330;4.946;2024-02-21T08:04:55;7.82;;;4.82;;
31694;SDS011;18289;51.330;4.946;2024-02-21T08:07:20;10.85;;;6.10;;
31694;SDS011;18289;51.330;4.946;2024-02-21T08:09:46;10.50;;;5.03;;
31694;SDS011;18289;51.330;4.946;2024-02-21T08:12:12;9.30;;;5.38;;
31694;SDS011;18289;51.330;4.946;2024-02-21T08:14:37;9.27;;;5.30;;
31694;SDS011;18289;51.330;4.946;2024-02-21T08:17:03;7.72;;;5.00;;
31694;SDS011;18289;51.330;4.946;2024-02-21T08:19:29;12.85;;;5.90;;
31694;SDS011;18289;51.330;4.946;2024-02-21T08:21:55;8.07;;;4.80;;
31694;SDS011;18289;51.330;4.946;2024-02-21T08:24:20;5.72;;;4.53;;
31694;SDS011;18289;51.330;4.946;2024-02-21T08:26:47;7.07;;;5.13;;
31694;SDS011;18289;51.330;4.946;2024-02-21T08:29:13;6.20;;;4.32;;
31694;SDS011;18289;51.330;4.946;2024-02-21T08:31:39;7.80;;;4.88;;
31694;SDS011;18289;51.330;4.946;2024-02-21T08:34:05;5.95;;;4.80;;
31694;SDS011;18289;51.330;4.946;2024-02-21T08:36:31;8.27;;;4.97;;
31694;SDS011;18289;51.330;4.946;2024-02-21T08:38:57;6.63;;;4.88;;
31694;SDS011;18289;51.330;4.946;2024-02-21T08:41:25;6.38;;;4.40;;
31694;SDS011;18289;51.330;4.946;2024-02-21T08:43:52;8.10;;;4.85;;
31694;SDS011;18289;51.330;4.946;2024-02-21T08:46:19;7.60;;;5.40;;
31694;SDS011;18289;51.330;4.946;2024-02-21T08:48:45;6.47;;;5.13;;
31694;SDS011;18289;51.330;4.946;2024-02-21T08:51:11;7.22;;;4.97;;
31694;SDS011;18289;51.330;4.946;2024-02-21T08:53:38;6.20;;;5.38;;
31694;SDS011;18289;51.330;4.946;2024-02-21T08:56:04;8.85;;;5.93;;
31694;SDS011;18289;51.330;4.946;2024-02-21T08:58:30;8.43;;;5.38;;
31694;SDS011;18289;51.330;4.946;2024-02-21T09:00:56;9.15;;;5.60;;
31694;SDS011;18289;51.330;4.946;2024-02-21T09:03:22;8.80;;;6.07;;
31694;SDS011;18289;51.330;4.946;2024-02-21T09:05:48;9.18;;;5.82;;
31694;SDS011;18289;51.330;4.946;2024-02-21T09:08:14;7.57;;;5.80;;
31694;SDS011;18289;51.330;4.946;2024-02-21T09:10:39;7.70;;;6.00;;
31694;SDS011;18289;51.330;4.946;2024-02-21T09:13:05;9.07;;;5.85;;
31694;SDS011;18289;51.330;4.946;2024-02-21T09:15:33;8.25;;;6.30;;
31694;SDS011;18289;51.330;4.946;2024-02-21T09:17:59;11.70;;;6.85;;
31694;SDS011;18289;51.330;4.946;2024-02-21T09:20:24;11.77;;;6.30;;
31694;SDS011;18289;51.330;4.946;2024-02-21T09:22:50;7.78;;;6.07;;
31694;SDS011;18289;51.330;4.946;2024-02-21T09:25:17;10.73;;;7.07;;
31694;SDS011;18289;51.330;4.946;2024-02-21T09:27:44;10.40;;;7.13;;
31694;SDS011;18289;51.330;4.946;2024-02-21T09:30:10;12.80;;;7.13;;
31694;SDS011;18289;51.330;4.946;2024-02-21T09:32:36;10.82;;;6.53;;
31694;SDS011;18289;51.330;4.946;2024-02-21T09:35:02;13.02;;;7.40;;
31694;SDS011;18289;51.330;4.946;2024-02-21T09:37:30;8.73;;;6.90;;
31694;SDS011;18289;51.330;4.946;2024-02-21T09:39:56;11.80;;;6.93;;
31694;SDS011;18289;51.330;4.946;2024-02-21T09:42:22;9.95;;;7.13;;
31694;SDS011;18289;51.330;4.946;2024-02-21T09:45:02;8.90;;;6.70;;
31694;SDS011;18289;51.330;4.946;2024-02-21T09:50:28;8.98;;;5.97;;
31694;SDS011;18289;51.330;4.946;2024-02-21T09:52:56;11.45;;;5.93;;
31694;SDS011;18289;51.330;4.946;2024-02-21T09:55:23;8.98;;;5.97;;
31694;SDS011;18289;51.330;4.946;2024-02-21T09:57:52;7.95;;;5.88;;
31694;SDS011;18289;51.330;4.946;2024-02-21T10:00:19;10.05;;;5.95;;
31694;SDS011;18289;51.330;4.946;2024-02-21T10:02:49;12.07;;;7.20;;
31694;SDS011;18289;51.330;4.946;2024-02-21T10:05:15;10.95;;;5.63;;
31694;SDS011;18289;51.330;4.946;2024-02-21T10:07:42;8.88;;;5.32;;
31694;SDS011;18289;51.330;4.946;2024-02-21T10:10:09;8.20;;;5.22;;
31694;SDS011;18289;51.330;4.946;2024-02-21T10:12:35;9.77;;;4.90;;
31694;SDS011;18289;51.330;4.946;2024-02-21T11:41:20;4.95;;;3.30;;
31694;SDS011;18289;51.330;4.946;2024-02-21T11:43:46;5.93;;;3.97;;
31694;SDS011;18289;51.330;4.946;2024-02-21T11:46:18;6.57;;;3.38;;
31694;SDS011;18289;51.330;4.946;2024-02-21T11:48:44;7.93;;;3.95;;
31694;SDS011;18289;51.330;4.946;2024-02-21T11:51:24;7.78;;;4.00;;
31694;SDS011;18289;51.330;4.946;2024-02-21T11:53:51;6.38;;;4.00;;
31694;SDS011;18289;51.330;4.946;2024-02-21T11:56:18;6.47;;;3.40;;
31694;SDS011;18289;51.330;4.946;2024-02-21T11:58:45;7.30;;;3.40;;
31694;SDS011;18289;51.330;4.946;2024-02-21T12:01:13;7.22;;;3.58;;
31694;SDS011;18289;51.330;4.946;2024-02-21T12:03:39;6.40;;;3.35;;
31694;SDS011;18289;51.330;4.946;2024-02-21T12:06:06;4.93;;;3.25;;
31694;SDS011;18289;51.330;4.946;2024-02-21T12:08:42;5.72;;;3.28;;
31694;SDS011;18289;51.330;4.946;2024-02-21T12:11:18;5.63;;;3.10;;
31694;SDS011;18289;51.330;4.946;2024-02-21T12:13:46;7.15;;;3.05;;
31694;SDS011;18289;51.330;4.946;2024-02-21T12:16:14;6.90;;;3.00;;
31694;SDS011;18289;51.330;4.946;2024-02-21T12:18:41;3.80;;;3.40;;
31694;SDS011;18289;51.330;4.946;2024-02-21T12:21:07;4.60;;;3.13;;
31694;SDS011;18289;51.330;4.946;2024-02-21T12:23:33;5.30;;;3.22;;
31694;SDS011;18289;51.330;4.946;2024-02-21T12:25:59;5.75;;;3.22;;
31694;SDS011;18289;51.330;4.946;2024-02-21T12:28:25;8.15;;;3.72;;
31694;SDS011;18289;51.330;4.946;2024-02-21T12:33:18;7.93;;;3.28;;
31694;SDS011;18289;51.330;4.946;2024-02-21T12:35:44;7.82;;;3.22;;
31694;SDS011;18289;51.330;4.946;2024-02-21T12:38:10;4.38;;;3.00;;
31694;SDS011;18289;51.330;4.946;2024-02-21T12:40:36;5.05;;;3.33;;
31694;SDS011;18289;51.330;4.946;2024-02-21T12:43:02;7.28;;;3.17;;
31694;SDS011;18289;51.330;4.946;2024-02-21T12:45:28;7.38;;;3.22;;
31694;SDS011;18289;51.330;4.946;2024-02-21T12:47:53;5.75;;;3.22;;
31694;SDS011;18289;51.330;4.946;2024-02-21T12:50:19;4.72;;;2.85;;
31694;SDS011;18289;51.330;4.946;2024-02-21T12:52:45;6.00;;;3.03;;
31694;SDS011;18289;51.330;4.946;2024-02-21T12:55:11;4.82;;;2.60;;
31694;SDS011;18289;51.330;4.946;2024-02-21T12:57:38;6.88;;;3.20;;
31694;SDS011;18289;51.330;4.946;2024-02-21T13:00:05;6.63;;;3.15;;
31694;SDS011;18289;51.330;4.946;2024-02-21T13:02:34;6.90;;;3.67;;
31694;SDS011;18289;51.330;4.946;2024-02-21T13:05:00;4.07;;;2.83;;
31694;SDS011;18289;51.330;4.946;2024-02-21T13:07:28;4.70;;;2.72;;
31694;SDS011;18289;51.330;4.946;2024-02-21T13:09:54;6.03;;;2.78;;
31694;SDS011;18289;51.330;4.946;2024-02-21T13:12:20;4.45;;;2.70;;
31694;SDS011;18289;51.330;4.946;2024-02-21T13:14:45;3.83;;;2.83;;
31694;SDS011;18289;51.330;4.946;2024-02-21T13:17:11;5.10;;;2.92;;
31694;SDS011;18289;51.330;4.946;2024-02-21T13:19:37;6.30;;;3.00;;
31694;SDS011;18289;51.330;4.946;2024-02-21T13:22:02;6.53;;;2.75;;
31694;SDS011;18289;51.330;4.946;2024-02-21T13:24:29;6.47;;;2.88;;
31694;SDS011;18289;51.330;4.946;2024-02-21T13:26:55;4.70;;;2.65;;
31694;SDS011;18289;51.330;4.946;2024-02-21T13:29:21;3.65;;;2.42;;
31694;SDS011;18289;51.330;4.946;2024-02-21T13:31:46;6.70;;;3.50;;
31694;SDS011;18289;51.330;4.946;2024-02-21T13:34:12;3.45;;;2.72;;
31694;SDS011;18289;51.330;4.946;2024-02-21T13:36:38;5.15;;;3.63;;
31694;SDS011;18289;51.330;4.946;2024-02-21T13:39:04;8.25;;;3.33;;
31694;SDS011;18289;51.330;4.946;2024-02-21T13:43:59;7.13;;;3.25;;
31694;SDS011;18289;51.330;4.946;2024-02-21T13:46:28;6.80;;;3.00;;
31694;SDS011;18289;51.330;4.946;2024-02-21T13:49:01;4.88;;;3.17;;
31694;SDS011;18289;51.330;4.946;2024-02-21T13:51:32;4.45;;;3.40;;
31694;SDS011;18289;51.330;4.946;2024-02-21T13:56:30;3.45;;;2.72;;
31694;SDS011;18289;51.330;4.946;2024-02-21T13:58:57;5.00;;;2.90;;
31694;SDS011;18289;51.330;4.946;2024-02-21T14:01:25;5.38;;;3.33;;
31694;SDS011;18289;51.330;4.946;2024-02-21T14:03:52;4.97;;;3.17;;
31694;SDS011;18289;51.330;4.946;2024-02-21T14:06:18;5.63;;;2.90;;
31694;SDS011;18289;51.330;4.946;2024-02-21T14:08:44;4.88;;;3.20;;
31694;SDS011;18289;51.330;4.946;2024-02-21T14:11:10;4.00;;;3.00;;
31694;SDS011;18289;51.330;4.946;2024-02-21T14:13:36;6.63;;;2.95;;
31694;SDS011;18289;51.330;4.946;2024-02-21T14:16:01;6.40;;;3.45;;
31694;SDS011;18289;51.330;4.946;2024-02-21T14:18:27;6.32;;;3.33;;
31694;SDS011;18289;51.330;4.946;2024-02-21T14:20:53;6.85;;;3.95;;
31694;SDS011;18289;51.330;4.946;2024-02-21T14:23:19;5.38;;;3.53;;
31694;SDS011;18289;51.330;4.946;2024-02-21T14:25:46;7.60;;;4.50;;
31694;SDS011;18289;51.330;4.946;2024-02-21T14:28:12;7.63;;;3.95;;
31694;SDS011;18289;51.330;4.946;2024-02-21T14:30:37;5.63;;;3.97;;
31694;SDS011;18289;51.330;4.946;2024-02-21T14:33:03;6.32;;;4.22;;
31694;SDS011;18289;51.330;4.946;2024-02-21T14:35:29;6.40;;;3.60;;
31694;SDS011;18289;51.330;4.946;2024-02-21T14:40:22;8.80;;;3.70;;
31694;SDS011;18289;51.330;4.946;2024-02-21T14:42:48;6.03;;;3.60;;
31694;SDS011;18289;51.330;4.946;2024-02-21T14:45:14;5.75;;;3.72;;
31694;SDS011;18289;51.330;4.946;2024-02-21T14:47:39;9.02;;;4.18;;
31694;SDS011;18289;51.330;4.946;2024-02-21T14:50:05;10.70;;;4.13;;
31694;SDS011;18289;51.330;4.946;2024-02-21T14:52:32;6.30;;;4.45;;
31694;SDS011;18289;51.330;4.946;2024-02-21T14:54:58;7.43;;;3.92;;
31694;SDS011;18289;51.330;4.946;2024-02-21T14:57:24;7.95;;;4.82;;
31694;SDS011;18289;51.330;4.946;2024-02-21T14:59:50;7.82;;;3.90;;
31694;SDS011;18289;51.330;4.946;2024-02-21T15:02:21;5.90;;;4.18;;
31694;SDS011;18289;51.330;4.946;2024-02-21T15:04:48;8.00;;;4.47;;
31694;SDS011;18289;51.330;4.946;2024-02-21T15:07:16;7.05;;;4.70;;
31694;SDS011;18289;51.330;4.946;2024-02-21T15:09:42;6.20;;;4.22;;
31694;SDS011;18289;51.330;4.946;2024-02-21T15:12:08;9.00;;;4.18;;
31694;SDS011;18289;51.330;4.946;2024-02-21T15:14:34;6.55;;;4.85;;
31694;SDS011;18289;51.330;4.946;2024-02-21T15:17:00;10.18;;;4.85;;
31694;SDS011;18289;51.330;4.946;2024-02-21T15:19:26;9.70;;;5.72;;
31694;SDS011;18289;51.330;4.946;2024-02-21T15:21:51;10.32;;;5.07;;
31694;SDS011;18289;51.330;4.946;2024-02-21T15:24:19;7.45;;;4.70;;
31694;SDS011;18289;51.330;4.946;2024-02-21T15:29:12;8.52;;;5.18;;
31694;SDS011;18289;51.330;4.946;2024-02-21T15:31:38;8.98;;;4.82;;
31694;SDS011;18289;51.330;4.946;2024-02-21T15:34:04;9.68;;;4.90;;
31694;SDS011;18289;51.330;4.946;2024-02-21T15:36:29;8.15;;;5.53;;
31694;SDS011;18289;51.330;4.946;2024-02-21T15:38:55;8.88;;;5.20;;
31694;SDS011;18289;51.330;4.946;2024-02-21T15:41:22;10.55;;;5.45;;
31694;SDS011;18289;51.330;4.946;2024-02-21T15:43:48;8.60;;;5.25;;
31694;SDS011;18289;51.330;4.946;2024-02-21T15:46:13;8.63;;;4.93;;
31694;SDS011;18289;51.330;4.946;2024-02-21T15:48:39;8.27;;;5.10;;
31694;SDS011;18289;51.330;4.946;2024-02-21T15:51:05;6.97;;;5.13;;
31694;SDS011;18289;51.330;4.946;2024-02-21T15:53:31;8.52;;;4.93;;
31694;SDS011;18289;51.330;4.946;2024-02-21T15:55:57;16.08;;;6.03;;
31694;SDS011;18289;51.330;4.946;2024-02-21T15:58:23;12.02;;;6.03;;
31694;SDS011;18289;51.330;4.946;2024-02-21T16:00:49;11.25;;;7.03;;
31694;SDS011;18289;51.330;4.946;2024-02-21T16:03:15;8.98;;;5.68;;
31694;SDS011;18289;51.330;4.946;2024-02-21T16:05:41;9.50;;;5.90;;
31694;SDS011;18289;51.330;4.946;2024-02-21T16:08:07;8.70;;;6.57;;
31694;SDS011;18289;51.330;4.946;2024-02-21T16:10:33;11.50;;;6.72;;
31694;SDS011;18289;51.330;4.946;2024-02-21T16:12:59;12.70;;;7.07;;
31694;SDS011;18289;51.330;4.946;2024-02-21T16:15:25;13.52;;;6.82;;
31694;SDS011;18289;51.330;4.946;2024-02-21T16:17:51;15.05;;;6.47;;
31694;SDS011;18289;51.330;4.946;2024-02-21T16:20:17;14.38;;;6.65;;
31694;SDS011;18289;51.330;4.946;2024-02-21T16:22:43;10.10;;;6.53;;
31694;SDS011;18289;51.330;4.946;2024-02-21T16:25:10;11.52;;;5.43;;
31694;SDS011;18289;51.330;4.946;2024-02-21T16:27:35;8.82;;;5.35;;